createdAt,value
2023-03-29T00:00:02.985Z,51225.56
2023-03-29T00:02:38.950Z,51187.78
2023-03-29T00:05:07.491Z,51213.63
2023-03-29T00:07:34.789Z,51213.63
2023-03-29T00:10:04.647Z,51237.50
2023-03-29T00:12:32.972Z,51219.59
2023-03-29T00:15:00.452Z,51217.59
2023-03-29T00:17:28.308Z,51227.56
2023-03-29T00:19:55.490Z,51225.56
2023-03-29T00:22:22.932Z,51229.53
2023-03-29T00:24:54.229Z,51233.50
2023-03-29T00:27:22.247Z,51219.59
2023-03-29T00:29:49.493Z,51203.69
2023-03-29T00:32:16.623Z,51241.47
2023-03-29T00:34:45.883Z,51201.72
2023-03-29T00:37:14.884Z,51221.59
2023-03-29T00:39:42.382Z,51219.59
2023-03-29T00:42:14.732Z,51191.78
2023-03-29T00:45:07.599Z,51223.56
2023-03-29T00:48:02.328Z,51233.50
2023-03-29T00:50:55.940Z,51215.63
2023-03-29T00:53:49.441Z,51205.69
2023-03-29T00:56:39.875Z,51255.38
2023-03-29T00:59:13.855Z,51217.59
2023-03-29T01:01:54.994Z,51217.59
2023-03-29T01:04:41.718Z,51203.69
2023-03-29T01:07:25.817Z,51213.63
2023-03-29T01:10:02.340Z,51233.50
2023-03-29T01:12:36.078Z,51217.59
2023-03-29T01:15:10.343Z,51213.63
2023-03-29T01:17:40.561Z,51241.47
2023-03-29T01:20:20.228Z,51193.75
2023-03-29T01:23:27.308Z,51189.78
2023-03-29T01:26:17.359Z,51209.66
2023-03-29T01:29:16.637Z,51229.53
2023-03-29T01:31:58.663Z,51209.66
2023-03-29T01:34:58.673Z,51175.88
2023-03-29T01:37:41.316Z,51199.72
2023-03-29T01:40:09.251Z,51221.59
2023-03-29T01:42:58.002Z,51225.56
2023-03-29T01:45:27.862Z,51207.66
2023-03-29T01:48:06.196Z,51199.72
2023-03-29T01:51:16.322Z,51203.69
2023-03-29T01:53:58.748Z,51199.72
2023-03-29T01:56:29.509Z,51167.91
2023-03-29T01:59:04.088Z,51191.78
2023-03-29T02:01:38.713Z,51217.59
2023-03-29T02:04:13.222Z,51213.63
2023-03-29T02:06:41.893Z,51219.59
2023-03-29T02:09:09.223Z,51207.66
2023-03-29T02:11:38.190Z,51207.66
2023-03-29T02:14:05.588Z,51245.44
2023-03-29T02:16:39.502Z,51237.50
2023-03-29T02:19:09.060Z,51205.69
2023-03-29T02:21:48.352Z,51193.75
2023-03-29T02:24:20.656Z,51235.50
2023-03-29T02:26:48.530Z,51227.56
2023-03-29T02:29:16.363Z,51203.69
2023-03-29T02:32:05.176Z,51195.75
2023-03-29T02:34:56.494Z,51219.59
2023-03-29T02:37:30.178Z,51205.69
2023-03-29T02:39:59.581Z,51225.56
2023-03-29T02:42:27.992Z,51193.75
2023-03-29T02:44:59.140Z,51245.44
2023-03-29T02:47:41.912Z,51199.72
2023-03-29T02:50:09.832Z,51231.53
2023-03-29T02:52:43.521Z,51219.59
2023-03-29T02:55:17.407Z,51195.75
2023-03-29T02:57:44.652Z,51205.69
2023-03-29T03:00:14.657Z,51199.72
2023-03-29T03:02:41.892Z,51227.56
2023-03-29T03:05:10.683Z,51197.72
2023-03-29T03:07:40.599Z,51231.53
2023-03-29T03:10:10.249Z,51221.59
2023-03-29T03:12:38.657Z,51225.56
2023-03-29T03:15:06.895Z,51221.59
2023-03-29T03:17:40.098Z,51181.81
2023-03-29T03:20:12.839Z,51197.72
2023-03-29T03:22:49.429Z,51217.59
2023-03-29T03:25:20.786Z,51221.59
2023-03-29T03:27:50.384Z,51221.59
2023-03-29T03:30:20.956Z,51199.72
2023-03-29T03:33:23.248Z,51213.63
2023-03-29T03:36:26.325Z,51219.59
2023-03-29T03:38:57.732Z,51233.50
2023-03-29T03:41:26.346Z,51215.63
2023-03-29T03:43:54.599Z,51195.75
2023-03-29T03:46:22.488Z,51173.88
2023-03-29T03:48:50.767Z,51197.72
2023-03-29T03:51:25.843Z,51213.63
2023-03-29T03:53:53.131Z,51209.66
2023-03-29T03:56:48.126Z,51201.72
2023-03-29T03:59:26.668Z,51219.59
2023-03-29T04:02:01.609Z,51225.56
2023-03-29T04:04:29.631Z,51221.59
2023-03-29T04:07:04.815Z,51233.50
2023-03-29T04:09:33.640Z,51199.72
2023-03-29T04:12:29.861Z,51251.41
2023-03-29T04:14:57.493Z,51171.88
2023-03-29T04:17:27.316Z,51187.78
2023-03-29T04:19:54.446Z,51225.56
2023-03-29T04:22:21.863Z,51221.59
2023-03-29T04:24:49.544Z,51207.66
2023-03-29T04:27:35.262Z,51219.59
2023-03-29T04:30:08.141Z,51211.66
2023-03-29T04:33:07.336Z,51209.66
2023-03-29T04:35:37.828Z,51209.66
2023-03-29T04:38:10.055Z,51211.66
2023-03-29T04:40:38.466Z,51243.47
2023-03-29T04:43:29.857Z,51225.56
2023-03-29T04:46:13.372Z,51197.72
2023-03-29T04:48:57.876Z,51209.66
2023-03-29T04:51:37.539Z,51193.75
2023-03-29T04:54:05.315Z,51219.59
2023-03-29T04:56:42.508Z,51225.56
2023-03-29T04:59:31.009Z,51227.56
2023-03-29T05:02:01.085Z,51197.72
2023-03-29T05:04:29.469Z,51205.69
2023-03-29T05:07:04.578Z,51187.78
2023-03-29T05:09:34.315Z,51205.69
2023-03-29T05:12:04.817Z,51187.78
2023-03-29T05:14:42.866Z,51217.59
2023-03-29T05:17:10.062Z,51217.59
2023-03-29T05:19:38.422Z,51235.50
2023-03-29T05:22:07.514Z,51207.66
2023-03-29T05:24:36.165Z,51209.66
2023-03-29T05:27:12.213Z,51225.56
2023-03-29T05:29:39.989Z,51231.53
2023-03-29T05:32:24.751Z,51203.69
2023-03-29T05:34:52.940Z,51225.56
2023-03-29T05:37:21.433Z,51191.78
2023-03-29T05:39:54.977Z,51211.66
2023-03-29T05:42:34.897Z,51207.66
2023-03-29T05:45:08.366Z,51229.53
2023-03-29T05:47:36.158Z,51211.66
2023-03-29T05:50:04.728Z,51209.66
2023-03-29T05:52:32.314Z,51227.56
2023-03-29T05:54:59.572Z,51209.66
2023-03-29T05:57:27.691Z,51215.63
2023-03-29T05:59:55.176Z,51235.50
2023-03-29T06:02:23.198Z,51209.66
2023-03-29T06:04:54.062Z,51229.53
2023-03-29T06:07:24.692Z,51209.66
2023-03-29T06:10:16.037Z,51203.69
2023-03-29T06:12:49.486Z,51209.66
2023-03-29T06:15:18.526Z,51241.47
2023-03-29T06:17:50.089Z,51215.63
2023-03-29T06:20:18.385Z,51233.50
2023-03-29T06:22:50.408Z,51213.63
2023-03-29T06:25:18.780Z,51207.66
2023-03-29T06:27:49.039Z,51243.47
2023-03-29T06:30:19.358Z,51223.56
2023-03-29T06:32:53.736Z,51225.56
2023-03-29T06:35:48.071Z,51223.56
2023-03-29T06:38:20.837Z,51205.69
2023-03-29T06:41:08.933Z,51241.47
2023-03-29T06:44:08.978Z,51213.63
2023-03-29T06:46:43.496Z,51251.41
2023-03-29T06:49:11.954Z,51215.63
2023-03-29T06:52:05.472Z,51231.53
2023-03-29T06:54:35.168Z,51253.41
2023-03-29T06:57:05.579Z,51241.47
2023-03-29T06:59:35.012Z,51217.59
2023-03-29T07:02:13.521Z,51237.50
2023-03-29T07:05:14.462Z,51207.66
2023-03-29T07:08:00.270Z,51217.59
2023-03-29T07:10:47.649Z,51245.44
2023-03-29T07:13:33.122Z,51229.53
2023-03-29T07:16:03.938Z,51245.44
2023-03-29T07:18:43.103Z,51223.56
2023-03-29T07:21:15.072Z,51217.59
2023-03-29T07:23:42.392Z,51235.50
2023-03-29T07:26:12.082Z,51221.59
2023-03-29T07:28:39.906Z,51253.41
2023-03-29T07:31:11.347Z,51241.47
2023-03-29T07:33:45.469Z,51231.53
2023-03-29T07:36:13.853Z,51235.50
2023-03-29T07:38:41.822Z,51253.41
2023-03-29T07:41:17.726Z,51235.50
2023-03-29T07:43:47.404Z,51225.56
2023-03-29T07:46:17.990Z,51233.50
2023-03-29T07:48:45.601Z,51241.47
2023-03-29T07:51:16.287Z,51227.56
2023-03-29T07:53:52.383Z,51237.50
2023-03-29T07:56:45.497Z,51241.47
2023-03-29T07:59:41.982Z,51237.50
2023-03-29T08:02:13.955Z,51259.34
2023-03-29T08:04:45.056Z,51237.50
2023-03-29T08:07:20.050Z,51259.34
2023-03-29T08:10:09.840Z,51247.44
2023-03-29T08:12:56.165Z,51241.47
2023-03-29T08:15:34.754Z,51239.47
2023-03-29T08:18:02.298Z,51243.47
2023-03-29T08:20:29.796Z,51255.38
2023-03-29T08:23:02.391Z,51235.50
2023-03-29T08:25:47.389Z,51223.56
2023-03-29T08:28:16.012Z,51231.53
2023-03-29T08:30:52.013Z,51265.31
2023-03-29T08:33:20.026Z,51253.41
2023-03-29T08:35:54.819Z,51279.25
2023-03-29T08:38:27.156Z,51233.50
2023-03-29T08:40:54.906Z,51265.31
2023-03-29T08:43:26.125Z,51243.47
2023-03-29T08:46:42.611Z,51241.47
2023-03-29T08:49:25.689Z,51245.44
2023-03-29T08:51:58.943Z,51235.50
2023-03-29T08:54:34.345Z,51249.41
2023-03-29T08:57:33.000Z,51263.34
2023-03-29T09:00:32.706Z,51233.50
2023-03-29T09:03:09.383Z,51259.34
2023-03-29T09:05:44.789Z,51223.56
2023-03-29T09:08:19.948Z,51287.19
2023-03-29T09:11:07.903Z,51277.25
2023-03-29T09:14:07.597Z,51231.53
2023-03-29T09:16:49.817Z,51265.31
2023-03-29T09:19:41.935Z,51257.38
2023-03-29T09:22:42.785Z,51275.25
2023-03-29T09:25:27.514Z,51263.34
2023-03-29T09:28:10.543Z,51263.34
2023-03-29T09:31:32.827Z,51239.47
2023-03-29T09:34:22.417Z,51269.31
2023-03-29T09:37:06.708Z,51301.09
2023-03-29T09:39:33.990Z,51277.25
2023-03-29T09:42:10.312Z,51277.25
2023-03-29T09:44:46.935Z,51257.38
2023-03-29T09:47:35.287Z,51271.28
2023-03-29T09:50:30.329Z,51295.16
2023-03-29T09:53:01.257Z,51277.25
2023-03-29T09:55:33.887Z,51277.25
2023-03-29T09:58:24.899Z,51255.38
2023-03-29T10:00:59.052Z,51281.22
2023-03-29T10:03:29.739Z,51271.28
2023-03-29T10:06:11.035Z,51261.34
2023-03-29T10:08:59.268Z,51291.16
2023-03-29T10:11:37.085Z,51299.13
2023-03-29T10:14:18.200Z,51285.19
2023-03-29T10:16:47.652Z,51299.13
2023-03-29T10:19:22.592Z,51273.28
2023-03-29T10:21:52.963Z,51273.28
2023-03-29T10:24:23.046Z,51283.22
2023-03-29T10:26:57.482Z,51297.13
2023-03-29T10:29:26.645Z,51293.16
2023-03-29T10:31:54.663Z,51295.16
2023-03-29T10:34:26.282Z,51303.09
2023-03-29T10:37:02.044Z,51271.28
2023-03-29T10:39:34.236Z,51265.31
2023-03-29T10:42:04.496Z,51291.16
2023-03-29T10:44:35.496Z,51299.13
2023-03-29T10:47:20.861Z,51279.25
2023-03-29T10:49:58.923Z,51289.19
2023-03-29T10:52:26.729Z,51285.19
2023-03-29T10:54:56.617Z,51299.13
2023-03-29T10:57:30.563Z,51291.16
2023-03-29T11:00:08.749Z,51283.22
2023-03-29T11:03:00.161Z,51267.31
2023-03-29T11:05:43.217Z,51273.28
2023-03-29T11:08:40.364Z,51269.31
2023-03-29T11:11:36.943Z,51269.31
2023-03-29T11:14:09.519Z,51267.31
2023-03-29T11:17:12.232Z,51267.31
2023-03-29T11:19:55.459Z,51271.28
2023-03-29T11:22:41.370Z,51289.19
2023-03-29T11:25:32.228Z,51273.28
2023-03-29T11:28:15.035Z,51289.19
2023-03-29T11:30:51.929Z,51287.19
2023-03-29T11:33:40.344Z,51301.09
2023-03-29T11:36:32.338Z,51303.09
2023-03-29T11:39:39.916Z,51285.19
2023-03-29T11:42:18.196Z,51287.19
2023-03-29T11:44:48.598Z,51279.25
2023-03-29T11:47:21.879Z,51283.22
2023-03-29T11:50:10.335Z,51303.09
2023-03-29T11:52:45.584Z,51295.16
2023-03-29T11:55:23.639Z,51271.28
2023-03-29T11:58:11.313Z,51293.16
2023-03-29T12:00:39.294Z,51311.06
2023-03-29T12:03:19.156Z,51305.09
2023-03-29T12:05:51.810Z,51328.94
2023-03-29T12:08:42.890Z,51319.00
2023-03-29T12:11:39.050Z,51328.94
2023-03-29T12:14:27.835Z,51307.06
2023-03-29T12:17:02.887Z,51336.91
2023-03-29T12:20:06.540Z,51330.94
2023-03-29T12:22:38.265Z,51358.75
2023-03-29T12:25:09.719Z,51372.69
2023-03-29T12:27:53.894Z,51360.75
2023-03-29T12:30:34.221Z,51332.91
2023-03-29T12:33:23.081Z,51346.84
2023-03-29T12:36:39.092Z,51356.78
2023-03-29T12:39:31.133Z,51358.75
2023-03-29T12:42:22.096Z,51384.59
2023-03-29T12:45:12.749Z,51362.75
2023-03-29T12:47:44.642Z,51346.84
2023-03-29T12:50:35.608Z,51352.78
2023-03-29T12:53:26.821Z,51326.94
2023-03-29T12:56:20.902Z,51332.91
2023-03-29T12:59:09.270Z,51322.97
2023-03-29T13:01:42.933Z,51301.09
2023-03-29T13:04:36.295Z,51321.00
2023-03-29T13:07:04.588Z,51303.09
2023-03-29T13:09:56.976Z,51322.97
2023-03-29T13:12:42.849Z,51285.19
2023-03-29T13:15:18.929Z,51285.19
2023-03-29T13:18:22.410Z,51281.22
2023-03-29T13:21:16.092Z,51315.03
2023-03-29T13:24:36.982Z,51313.03
2023-03-29T13:27:45.479Z,51330.94
2023-03-29T13:30:33.784Z,51291.16
2023-03-29T13:33:31.681Z,51303.09
2023-03-29T13:35:58.765Z,51297.13
2023-03-29T13:38:31.812Z,51326.94
2023-03-29T13:41:05.172Z,51311.06
2023-03-29T13:43:52.029Z,51309.06
2023-03-29T13:46:41.512Z,51299.13
2023-03-29T13:49:29.735Z,51291.16
2023-03-29T13:52:16.360Z,51315.03
2023-03-29T13:55:32.258Z,51295.16
2023-03-29T13:58:06.645Z,51317.00
2023-03-29T14:01:35.501Z,51289.19
2023-03-29T14:04:06.057Z,51301.09
2023-03-29T14:06:37.235Z,51321.00
2023-03-29T14:09:09.004Z,51324.97
2023-03-29T14:11:36.965Z,51332.91
2023-03-29T14:14:08.161Z,51299.13
2023-03-29T14:16:38.714Z,51324.97
2023-03-29T14:19:19.077Z,51317.00
2023-03-29T14:21:46.500Z,51307.06
2023-03-29T14:24:22.248Z,51340.88
2023-03-29T14:26:49.929Z,51324.97
2023-03-29T14:29:18.316Z,51334.91
2023-03-29T14:31:46.147Z,51321.00
2023-03-29T14:34:17.034Z,51303.09
2023-03-29T14:36:48.782Z,51322.97
2023-03-29T14:39:23.467Z,51328.94
2023-03-29T14:41:53.967Z,51336.91
2023-03-29T14:44:25.274Z,51346.84
2023-03-29T14:46:53.295Z,51352.78
2023-03-29T14:49:23.122Z,51309.06
2023-03-29T14:51:51.071Z,51344.84
2023-03-29T14:54:31.904Z,51336.91
2023-03-29T14:57:00.285Z,51342.84
2023-03-29T14:59:40.903Z,51326.94
2023-03-29T15:02:31.249Z,51356.78
2023-03-29T15:05:05.084Z,51352.78
2023-03-29T15:07:36.463Z,51344.84
2023-03-29T15:10:06.516Z,51330.94
2023-03-29T15:12:34.487Z,51352.78
2023-03-29T15:15:04.326Z,51360.75
2023-03-29T15:17:51.637Z,51350.81
2023-03-29T15:20:24.856Z,51332.91
2023-03-29T15:23:16.890Z,51322.97
2023-03-29T15:25:52.668Z,51340.88
2023-03-29T15:28:34.465Z,51364.72
2023-03-29T15:31:12.246Z,51348.81
2023-03-29T15:33:41.888Z,51334.91
2023-03-29T15:36:11.864Z,51360.75
2023-03-29T15:38:45.373Z,51344.84
2023-03-29T15:41:16.597Z,51350.81
2023-03-29T15:43:43.808Z,51319.00
2023-03-29T15:46:13.976Z,51352.78
2023-03-29T15:48:41.762Z,51334.91
2023-03-29T15:51:12.522Z,51344.84
2023-03-29T15:53:40.635Z,51328.94
2023-03-29T15:56:11.605Z,51301.09
2023-03-29T15:58:39.190Z,51319.00
2023-03-29T16:01:36.726Z,51332.91
2023-03-29T16:04:14.450Z,51328.94
2023-03-29T16:06:43.146Z,51326.94
2023-03-29T16:09:11.979Z,51315.03
2023-03-29T16:11:41.784Z,51321.00
2023-03-29T16:14:31.383Z,51336.91
2023-03-29T16:17:00.784Z,51313.03
2023-03-29T16:19:29.843Z,51324.97
2023-03-29T16:22:01.415Z,51324.97
2023-03-29T16:24:32.154Z,51313.03
2023-03-29T16:27:01.500Z,51328.94
2023-03-29T16:29:29.890Z,51315.03
2023-03-29T16:31:57.639Z,51307.06
2023-03-29T16:34:24.926Z,51309.06
2023-03-29T16:36:53.114Z,51301.09
2023-03-29T16:39:20.829Z,51322.97
2023-03-29T16:41:50.069Z,51317.00
2023-03-29T16:44:23.662Z,51321.00
2023-03-29T16:46:54.498Z,51289.19
2023-03-29T16:49:21.810Z,51315.03
2023-03-29T16:51:49.244Z,51317.00
2023-03-29T16:54:17.615Z,51321.00
2023-03-29T16:56:44.993Z,51305.09
2023-03-29T16:59:12.249Z,51319.00
2023-03-29T17:01:40.615Z,51303.09
2023-03-29T17:04:08.917Z,51313.03
2023-03-29T17:06:36.554Z,51293.16
2023-03-29T17:09:05.144Z,51319.00
2023-03-29T17:11:32.724Z,51301.09
2023-03-29T17:14:00.304Z,51293.16
2023-03-29T17:16:29.115Z,51307.06
2023-03-29T17:19:00.590Z,51309.06
2023-03-29T17:21:29.658Z,51293.16
2023-03-29T17:23:56.899Z,51311.06
2023-03-29T17:26:24.270Z,51293.16
2023-03-29T17:28:51.577Z,51293.16
2023-03-29T17:31:21.381Z,51301.09
2023-03-29T17:33:51.987Z,51289.19
2023-03-29T17:36:23.917Z,51287.19
2023-03-29T17:38:51.832Z,51307.06
2023-03-29T17:41:19.292Z,51293.16
2023-03-29T17:43:47.880Z,51301.09
2023-03-29T17:46:16.585Z,51317.00
2023-03-29T17:48:43.895Z,51305.09
2023-03-29T17:51:11.220Z,51315.03
2023-03-29T17:53:38.383Z,51277.25
2023-03-29T17:56:07.067Z,51289.19
2023-03-29T17:58:34.161Z,51307.06
2023-03-29T18:01:09.239Z,51289.19
2023-03-29T18:03:39.675Z,51287.19
2023-03-29T18:06:07.565Z,51281.22
2023-03-29T18:08:35.961Z,51281.22
2023-03-29T18:11:16.178Z,51267.31
2023-03-29T18:13:44.513Z,51313.03
2023-03-29T18:16:11.929Z,51281.22
2023-03-29T18:18:40.593Z,51293.16
2023-03-29T18:21:10.208Z,51285.19
2023-03-29T18:23:39.957Z,51291.16
2023-03-29T18:26:08.329Z,51313.03
2023-03-29T18:28:37.620Z,51301.09
2023-03-29T18:31:06.405Z,51293.16
2023-03-29T18:33:37.337Z,51279.25
2023-03-29T18:36:10.750Z,51265.31
2023-03-29T18:38:40.746Z,51279.25
2023-03-29T18:41:08.682Z,51291.16
2023-03-29T18:43:37.029Z,51315.03
2023-03-29T18:46:04.426Z,51281.22
2023-03-29T18:48:33.690Z,51317.00
2023-03-29T18:51:01.866Z,51277.25
2023-03-29T18:53:29.791Z,51293.16
2023-03-29T18:55:57.734Z,51285.19
2023-03-29T18:58:25.032Z,51281.22
2023-03-29T19:00:52.228Z,51275.25
2023-03-29T19:03:19.465Z,51275.25
2023-03-29T19:05:52.820Z,51283.22
2023-03-29T19:08:20.437Z,51293.16
2023-03-29T19:10:48.040Z,51275.25
2023-03-29T19:13:15.859Z,51273.28
2023-03-29T19:15:43.170Z,51289.19
2023-03-29T19:18:10.451Z,51285.19
2023-03-29T19:20:38.482Z,51273.28
2023-03-29T19:23:06.188Z,51321.00
2023-03-29T19:25:33.905Z,51299.13
2023-03-29T19:28:03.554Z,51269.31
2023-03-29T19:30:31.566Z,51299.13
2023-03-29T19:32:58.739Z,51295.16
2023-03-29T19:35:26.054Z,51289.19
2023-03-29T19:37:53.140Z,51277.25
2023-03-29T19:40:21.013Z,51283.22
2023-03-29T19:42:48.261Z,51289.19
2023-03-29T19:45:15.576Z,51281.22
2023-03-29T19:47:47.604Z,51255.38
2023-03-29T19:50:15.047Z,51281.22
2023-03-29T19:52:43.131Z,51287.19
2023-03-29T19:55:10.802Z,51263.34
2023-03-29T19:57:38.263Z,51263.34
2023-03-29T20:00:08.161Z,51281.22
2023-03-29T20:02:39.897Z,51287.19
2023-03-29T20:05:08.370Z,51281.22
2023-03-29T20:07:36.458Z,51297.13
2023-03-29T20:10:09.795Z,51281.22
2023-03-29T20:12:37.116Z,51287.19
2023-03-29T20:15:05.275Z,51297.13
2023-03-29T20:17:32.581Z,51285.19
2023-03-29T20:20:00.016Z,51279.25
2023-03-29T20:22:30.749Z,51263.34
2023-03-29T20:24:57.978Z,51263.34
2023-03-29T20:27:26.328Z,51277.25
2023-03-29T20:29:53.438Z,51281.22
2023-03-29T20:32:20.684Z,51277.25
2023-03-29T20:34:47.936Z,51305.09
2023-03-29T20:37:15.128Z,51281.22
2023-03-29T20:39:42.338Z,51297.13
2023-03-29T20:42:09.448Z,51293.16
2023-03-29T20:44:36.681Z,51273.28
2023-03-29T20:47:05.089Z,51303.09
2023-03-29T20:49:38.009Z,51279.25
2023-03-29T20:52:17.153Z,51297.13
2023-03-29T20:54:45.754Z,51301.09
2023-03-29T20:57:20.070Z,51277.25
2023-03-29T20:59:49.299Z,51291.16
2023-03-29T21:02:23.028Z,51281.22
2023-03-29T21:04:53.971Z,51321.00
2023-03-29T21:07:21.714Z,51267.31
2023-03-29T21:09:49.923Z,51289.19
2023-03-29T21:12:17.608Z,51293.16
2023-03-29T21:14:44.922Z,51281.22
2023-03-29T21:17:12.280Z,51299.13
2023-03-29T21:19:39.592Z,51261.34
2023-03-29T21:22:07.267Z,51281.22
2023-03-29T21:24:36.500Z,51299.13
2023-03-29T21:27:03.979Z,51277.25
2023-03-29T21:29:31.237Z,51279.25
2023-03-29T21:31:58.461Z,51261.34
2023-03-29T21:34:25.864Z,51273.28
2023-03-29T21:36:52.996Z,51289.19
2023-03-29T21:39:20.233Z,51257.38
2023-03-29T21:41:47.561Z,51273.28
2023-03-29T21:44:15.163Z,51291.16
2023-03-29T21:46:42.288Z,51317.00
2023-03-29T21:49:09.400Z,51261.34
2023-03-29T21:51:36.517Z,51265.31
2023-03-29T21:54:03.924Z,51265.31
2023-03-29T21:56:31.233Z,51291.16
2023-03-29T21:58:58.302Z,51271.28
2023-03-29T22:01:25.540Z,51259.34
2023-03-29T22:03:53.004Z,51265.31
2023-03-29T22:06:20.246Z,51271.28
2023-03-29T22:08:49.565Z,51277.25
2023-03-29T22:11:17.340Z,51269.31
2023-03-29T22:13:45.913Z,51259.34
2023-03-29T22:16:14.192Z,51269.31
2023-03-29T22:18:44.306Z,51265.31
2023-03-29T22:21:17.641Z,51293.16
2023-03-29T22:23:50.125Z,51283.22
2023-03-29T22:26:22.421Z,51281.22
2023-03-29T22:28:51.132Z,51281.22
2023-03-29T22:31:21.239Z,51271.28
2023-03-29T22:33:48.975Z,51281.22
2023-03-29T22:36:25.378Z,51271.28
2023-03-29T22:38:53.634Z,51285.19
2023-03-29T22:41:27.694Z,51289.19
2023-03-29T22:43:57.155Z,51275.25
2023-03-29T22:46:25.446Z,51285.19
2023-03-29T22:48:53.126Z,51277.25
2023-03-29T22:51:21.044Z,51273.28
2023-03-29T22:53:48.421Z,51297.13
2023-03-29T22:56:16.966Z,51285.19
2023-03-29T22:58:44.495Z,51275.25
2023-03-29T23:01:12.854Z,51265.31
2023-03-29T23:03:39.998Z,51257.38
2023-03-29T23:06:07.635Z,51269.31
2023-03-29T23:08:36.436Z,51279.25
2023-03-29T23:11:04.873Z,51245.44
2023-03-29T23:13:33.594Z,51293.16
2023-03-29T23:16:03.670Z,51279.25
2023-03-29T23:18:35.040Z,51265.31
2023-03-29T23:21:02.539Z,51293.16
2023-03-29T23:23:29.981Z,51277.25
2023-03-29T23:25:57.257Z,51279.25
2023-03-29T23:28:30.346Z,51265.31
2023-03-29T23:31:09.762Z,51235.50
2023-03-29T23:33:41.268Z,51275.25
2023-03-29T23:36:17.964Z,51285.19
2023-03-29T23:38:46.799Z,51299.13
2023-03-29T23:41:14.251Z,51261.34
2023-03-29T23:43:43.663Z,51281.22
2023-03-29T23:46:17.457Z,51265.31
2023-03-29T23:48:46.490Z,51267.31
2023-03-29T23:51:14.002Z,51275.25
2023-03-29T23:53:41.226Z,51257.38
2023-03-29T23:56:09.233Z,51283.22
2023-03-29T23:58:38.144Z,51273.28
